Time;durP1;ratioP1;P1;durP2;ratioP2;P2;SDS_P1;SDS_P2;PMS_P1;PMS_P2;Temp;Humidity;BMP_temperature;BMP_pressure;BME280_temperature;BME280_humidity;BME280_pressure;Samples;Min_cycle;Max_cycle;Signal;HPM_P1;HPM_P2
2022/12/29 00:01:29;;;;;;;7.97;5.22;;;10.40;99.90;;;;;;5019032;28;20035;-59
2022/12/29 00:03:55;;;;;;;6.82;5.15;;;10.40;99.90;;;;;;5004600;28;20114;-59
2022/12/29 00:06:21;;;;;;;6.88;4.88;;;10.40;99.90;;;;;;5024222;28;20484;-58
2022/12/29 00:08:47;;;;;;;6.93;4.80;;;10.40;99.90;;;;;;5012209;28;20049;-60
2022/12/29 00:11:19;;;;;;;5.10;4.60;;;10.40;99.90;;;;;;5026041;28;20170;-58
2022/12/29 00:16:30;;;;;;;5.00;4.50;;;10.50;99.90;;;;;;5014046;28;20077;-60
2022/12/29 00:18:56;;;;;;;4.78;3.88;;;10.50;99.90;;;;;;5002233;28;20075;-57
2022/12/29 00:35:37;;;;;;;6.68;5.18;;;10.50;99.90;;;;;;5020804;28;20168;-59
2022/12/29 00:46:18;;;;;;;6.28;5.68;;;10.50;99.90;;;;;;5006907;28;20677;-57
2022/12/29 00:51:28;;;;;;;;;;;10.50;99.90;;;;;;5019999;28;20472;-56
2022/12/29 00:53:54;;;;;;;5.47;4.93;;;10.50;99.90;;;;;;4998513;28;19917;-59
2022/12/29 00:56:20;;;;;;;11.07;5.18;;;10.50;99.90;;;;;;5022021;28;20057;-56
2022/12/29 00:58:45;;;;;;;7.40;4.93;;;10.60;99.90;;;;;;5022560;28;20041;-58
2022/12/29 01:01:11;;;;;;;7.47;6.07;;;10.60;99.90;;;;;;5003838;28;20041;-57
2022/12/29 01:03:38;;;;;;;6.47;4.93;;;10.60;99.90;;;;;;5018265;28;20041;-57
2022/12/29 01:06:07;;;;;;;6.78;4.93;;;10.60;99.90;;;;;;5016819;28;20034;-59
2022/12/29 01:08:33;;;;;;;5.40;4.25;;;10.60;99.90;;;;;;5017929;28;20072;-59
2022/12/29 01:11:10;;;;;;;7.15;4.70;;;10.60;99.90;;;;;;5002743;28;20057;-60
2022/12/29 01:13:38;;;;;;;6.20;4.72;;;10.60;99.90;;;;;;5020556;28;20033;-57
2022/12/29 01:16:05;;;;;;;6.28;4.97;;;10.60;99.90;;;;;;5015561;28;20968;-59
2022/12/29 01:18:34;;;;;;;8.00;4.20;;;10.60;99.90;;;;;;5019721;28;20061;-59
2022/12/29 01:21:06;;;;;;;6.70;4.30;;;10.60;99.90;;;;;;5022658;28;20473;-58
2022/12/29 01:23:32;;;;;;;6.25;4.10;;;10.60;99.90;;;;;;5019493;28;20056;-58
2022/12/29 01:26:08;;;;;;;6.45;4.70;;;10.60;99.90;;;;;;5020358;28;20045;-58
2022/12/29 01:28:34;;;;;;;6.55;4.32;;;10.60;99.90;;;;;;5019254;28;20176;-59
2022/12/29 01:31:01;;;;;;;6.97;3.95;;;10.60;99.90;;;;;;5022276;28;20116;-59
2022/12/29 01:33:30;;;;;;;6.80;3.85;;;10.60;99.90;;;;;;5008400;28;21286;-56
2022/12/29 01:36:07;;;;;;;4.97;4.18;;;10.60;99.90;;;;;;5020648;28;20056;-57
2022/12/29 01:38:34;;;;;;;7.72;4.00;;;10.60;99.90;;;;;;5003699;28;20384;-59
2022/12/29 01:41:00;;;;;;;5.90;4.32;;;10.60;99.90;;;;;;5018203;28;20073;-59
2022/12/29 01:43:56;;;;;;;5.20;4.20;;;10.60;99.90;;;;;;5000671;28;20538;-59
2022/12/29 01:46:45;;;;;;;6.47;4.47;;;10.60;99.90;;;;;;5024034;28;20075;-59
2022/12/29 01:49:21;;;;;;;5.75;4.70;;;10.60;99.90;;;;;;5019102;28;20042;-57
2022/12/29 01:52:00;;;;;;;6.38;5.40;;;10.60;99.90;;;;;;5020867;28;20045;-60
2022/12/29 01:54:35;;;;;;;8.70;5.60;;;10.50;99.90;;;;;;5024021;28;20068;-59
2022/12/29 01:57:08;;;;;;;8.25;5.00;;;10.50;99.90;;;;;;5003362;28;20476;-60
2022/12/29 01:59:38;;;;;;;6.70;5.30;;;10.50;99.90;;;;;;4997842;28;20052;-60
2022/12/29 02:02:08;;;;;;;8.02;5.13;;;10.40;99.90;;;;;;5022334;28;20048;-60
2022/12/29 02:04:34;;;;;;;6.25;5.05;;;10.40;99.90;;;;;;5000617;28;20528;-59
2022/12/29 02:07:08;;;;;;;6.93;4.25;;;10.40;99.90;;;;;;5022056;28;20041;-59
2022/12/29 02:09:34;;;;;;;8.82;5.10;;;10.40;99.90;;;;;;5021547;28;20504;-58
2022/12/29 02:12:04;;;;;;;7.45;4.85;;;10.40;99.90;;;;;;5023291;28;20116;-59
2022/12/29 02:14:30;;;;;;;5.68;4.75;;;10.40;99.90;;;;;;5034557;28;20175;-58
2022/12/29 02:17:04;;;;;;;8.82;4.80;;;10.40;99.90;;;;;;5014758;28;20115;-61
2022/12/29 02:19:42;;;;;;;;;;;10.40;99.90;;;;;;5008925;28;20041;-59
2022/12/29 02:22:19;;;;;;;2.58;1.17;;;10.40;99.90;;;;;;5006885;28;19923;-57
2022/12/29 02:24:56;;;;;;;2.08;1.60;;;10.20;99.90;;;;;;5003564;28;20045;-55
2022/12/29 02:27:51;;;;;;;3.47;2.10;;;10.20;99.90;;;;;;5031405;22;20094;-63
2022/12/29 02:30:48;;;;;;;6.88;3.83;;;10.20;99.90;;;;;;5038545;28;20048;-61
2022/12/29 02:33:38;;;;;;;7.32;3.67;;;10.20;99.90;;;;;;5027381;28;20063;-61
2022/12/29 02:36:07;;;;;;;8.45;3.42;;;10.20;99.90;;;;;;5037378;28;20068;-60
2022/12/29 02:38:54;;;;;;;7.20;3.90;;;10.20;99.90;;;;;;5023745;28;20045;-59
2022/12/29 02:41:23;;;;;;;7.50;3.88;;;10.20;99.90;;;;;;5024894;28;20040;-61
2022/12/29 02:44:00;;;;;;;4.97;3.22;;;10.20;99.90;;;;;;5040427;28;20045;-62
2022/12/29 02:46:36;;;;;;;4.80;2.33;;;10.10;99.90;;;;;;5038488;28;20037;-59
2022/12/29 02:49:20;;;;;;;1.45;0.70;;;10.00;99.90;;;;;;5038125;28;20037;-60
2022/12/29 02:51:58;;;;;;;1.80;1.00;;;9.90;99.90;;;;;;5037147;28;20076;-59
2022/12/29 02:54:42;;;;;;;1.60;1.02;;;9.90;99.90;;;;;;5042401;28;20143;-60
2022/12/29 02:57:11;;;;;;;;;;;9.90;99.90;;;;;;5001622;28;20139;-63
2022/12/29 02:59:37;;;;;;;3.70;2.42;;;9.90;99.90;;;;;;5040939;28;20042;-59
2022/12/29 03:02:27;;;;;;;5.53;2.80;;;10.00;99.90;;;;;;5000829;28;20037;-61
2022/12/29 03:05:17;;;;;;;4.15;2.80;;;10.00;99.90;;;;;;5024266;28;20558;-63
2022/12/29 03:08:14;;;;;;;6.35;2.92;;;10.00;99.90;;;;;;5039196;28;20410;-61
2022/12/29 03:11:00;;;;;;;4.68;2.90;;;10.00;99.90;;;;;;5017826;28;20049;-62
2022/12/29 03:16:47;;;;;;;4.75;2.92;;;10.00;99.90;;;;;;5036662;28;20045;-63
2022/12/29 03:19:28;;;;;;;6.85;2.40;;;9.90;99.90;;;;;;5035435;28;20049;-60
2022/12/29 03:22:30;;;;;;;6.45;2.60;;;9.90;99.90;;;;;;5032684;28;20037;-60
2022/12/29 03:25:33;;;;;;;7.07;2.13;;;9.90;99.90;;;;;;5033753;28;20067;-62
2022/12/29 03:28:04;;;;;;;4.95;1.98;;;9.80;99.90;;;;;;5005711;28;20506;-60
2022/12/29 03:30:33;;;;;;;6.70;2.53;;;9.70;99.90;;;;;;5009463;28;20243;-60
2022/12/29 03:33:03;;;;;;;6.75;2.45;;;9.80;99.90;;;;;;5044596;28;20388;-55
2022/12/29 03:35:34;;;;;;;7.72;1.83;;;9.70;99.90;;;;;;5040596;28;20106;-61
2022/12/29 03:38:15;;;;;;;7.53;1.85;;;9.70;99.90;;;;;;5044380;28;20067;-59
2022/12/29 03:40:45;;;;;;;7.43;2.25;;;9.70;99.90;;;;;;5016290;28;20155;-60
2022/12/29 03:43:12;;;;;;;4.70;1.73;;;9.70;99.90;;;;;;5038860;28;20382;-62
2022/12/29 03:45:38;;;;;;;2.72;1.35;;;9.70;99.90;;;;;;5018882;28;20041;-60
2022/12/29 03:48:04;;;;;;;6.25;2.00;;;9.60;99.90;;;;;;5006102;28;20198;-61
2022/12/29 03:50:33;;;;;;;10.00;3.47;;;9.60;99.90;;;;;;5033944;28;21051;-61
2022/12/29 03:53:02;;;;;;;5.78;1.98;;;9.60;99.90;;;;;;5003064;28;20041;-60
2022/12/29 03:55:28;;;;;;;3.72;1.80;;;9.50;99.90;;;;;;5017485;28;20049;-61
2022/12/29 03:57:56;;;;;;;4.57;1.85;;;9.50;99.90;;;;;;5038856;28;20047;-62
2022/12/29 04:00:22;;;;;;;4.68;1.85;;;9.50;99.90;;;;;;5035218;28;20033;-58
2022/12/29 04:02:48;;;;;;;4.00;1.83;;;9.40;99.90;;;;;;5041147;28;20049;-63
2022/12/29 04:05:14;;;;;;;5.57;1.85;;;9.40;99.90;;;;;;5036148;28;20060;-61
2022/12/29 04:07:39;;;;;;;4.25;1.60;;;9.40;99.90;;;;;;5028042;28;20046;-61
2022/12/29 04:10:08;;;;;;;5.72;1.80;;;9.40;99.90;;;;;;5044048;28;20576;-60
2022/12/29 04:12:34;;;;;;;6.80;1.77;;;9.40;99.90;;;;;;5023765;28;20037;-62
2022/12/29 04:14:59;;;;;;;7.32;1.48;;;9.40;99.90;;;;;;5019563;28;20545;-60
2022/12/29 04:17:25;;;;;;;6.40;1.80;;;9.40;99.90;;;;;;5009186;28;20083;-61
2022/12/29 04:19:51;;;;;;;7.22;1.98;;;9.30;99.90;;;;;;5009642;28;20053;-62
2022/12/29 04:22:16;;;;;;;6.50;1.65;;;9.30;99.90;;;;;;5006410;28;20052;-61
2022/12/29 04:24:42;;;;;;;9.85;2.53;;;9.30;99.90;;;;;;5036070;28;20140;-61
2022/12/29 04:27:08;;;;;;;7.60;2.00;;;9.30;99.90;;;;;;5042953;28;20052;-62
2022/12/29 04:29:33;;;;;;;9.05;1.55;;;9.30;99.90;;;;;;5035717;28;20032;-61
2022/12/29 04:31:59;;;;;;;7.05;1.98;;;9.30;99.90;;;;;;5043746;28;20480;-60
2022/12/29 04:34:25;;;;;;;13.25;2.40;;;9.30;99.90;;;;;;5011478;28;20045;-60
2022/12/29 04:36:50;;;;;;;8.82;2.47;;;9.30;99.90;;;;;;5017429;28;20578;-61
2022/12/29 04:39:16;;;;;;;9.15;1.83;;;9.30;99.90;;;;;;5013458;28;20056;-61
2022/12/29 04:41:46;;;;;;;8.38;2.03;;;9.20;99.90;;;;;;5043063;28;20143;-63
2022/12/29 04:44:11;;;;;;;11.75;2.40;;;9.20;99.90;;;;;;5027439;28;20080;-61
2022/12/29 04:46:40;;;;;;;11.40;2.00;;;9.10;99.90;;;;;;5012481;28;20072;-61
2022/12/29 04:49:09;;;;;;;12.77;2.22;;;9.10;99.90;;;;;;5043729;28;20059;-60
2022/12/29 04:51:35;;;;;;;14.07;2.35;;;9.20;99.90;;;;;;5045430;28;20486;-62
2022/12/29 04:54:01;;;;;;;11.98;2.38;;;9.20;99.90;;;;;;5031314;28;20045;-61
2022/12/29 04:56:26;;;;;;;14.38;2.70;;;9.10;99.90;;;;;;5018829;28;20115;-61
2022/12/29 04:58:52;;;;;;;8.60;2.40;;;9.10;99.90;;;;;;5019644;28;20037;-61
2022/12/29 05:01:18;;;;;;;16.67;3.03;;;9.10;99.90;;;;;;5040400;28;20754;-60
2022/12/29 05:03:43;;;;;;;9.10;2.15;;;9.10;99.90;;;;;;5041267;28;20041;-61
2022/12/29 05:06:09;;;;;;;11.68;2.28;;;9.10;99.90;;;;;;5035191;28;20052;-62
2022/12/29 05:08:35;;;;;;;17.80;2.35;;;9.10;99.90;;;;;;5037652;28;20064;-62
2022/12/29 05:11:00;;;;;;;14.88;2.75;;;9.10;99.90;;;;;;5018425;28;20095;-61
2022/12/29 05:13:26;;;;;;;13.98;2.72;;;9.10;99.90;;;;;;5022949;28;20167;-61
2022/12/29 05:15:53;;;;;;;14.85;3.13;;;9.10;99.90;;;;;;5016367;28;20045;-63
2022/12/29 05:18:19;;;;;;;10.57;2.60;;;9.10;99.90;;;;;;5017420;28;20400;-61
2022/12/29 05:20:45;;;;;;;14.57;2.50;;;9.10;99.90;;;;;;5037996;28;20037;-61
2022/12/29 05:23:11;;;;;;;16.20;3.38;;;9.10;99.90;;;;;;5029053;28;20044;-58
2022/12/29 05:25:37;;;;;;;12.48;2.42;;;9.10;99.90;;;;;;5019207;28;20049;-59
2022/12/29 05:28:02;;;;;;;16.98;2.50;;;9.00;99.90;;;;;;5022553;28;20035;-61
2022/12/29 05:30:28;;;;;;;19.13;2.60;;;9.10;99.90;;;;;;5017443;28;20033;-61
2022/12/29 05:32:54;;;;;;;11.25;2.05;;;9.10;99.90;;;;;;5037923;28;20311;-60
2022/12/29 05:35:20;;;;;;;16.92;2.55;;;9.10;99.90;;;;;;5042246;28;20438;-60
2022/12/29 05:37:46;;;;;;;18.35;2.60;;;9.00;99.90;;;;;;5038848;28;20534;-60
2022/12/29 05:40:11;;;;;;;15.70;2.72;;;9.00;99.90;;;;;;5042061;28;20272;-61
2022/12/29 05:42:37;;;;;;;13.77;3.67;;;9.00;99.90;;;;;;5039578;28;20077;-60
2022/12/29 05:45:03;;;;;;;14.52;2.72;;;9.00;99.90;;;;;;5037141;28;20041;-60
2022/12/29 05:47:29;;;;;;;11.20;2.30;;;9.00;99.90;;;;;;5043350;28;20510;-61
2022/12/29 05:49:55;;;;;;;14.25;2.53;;;9.00;99.90;;;;;;5037099;28;20037;-60
2022/12/29 05:52:20;;;;;;;11.88;2.20;;;9.10;99.90;;;;;;5042818;28;20037;-58
2022/12/29 05:54:46;;;;;;;15.02;2.78;;;9.10;99.90;;;;;;5038506;28;20475;-60
2022/12/29 05:57:12;;;;;;;10.63;2.25;;;9.20;99.90;;;;;;5041764;28;20037;-61
2022/12/29 05:59:38;;;;;;;13.10;2.08;;;9.20;99.90;;;;;;5009657;28;21191;-58
2022/12/29 06:02:03;;;;;;;13.88;2.92;;;9.20;99.90;;;;;;5038327;28;20033;-61
2022/12/29 06:04:29;;;;;;;19.10;3.10;;;9.20;99.90;;;;;;5038284;28;20037;-59
2022/12/29 06:06:55;;;;;;;16.08;2.40;;;9.20;99.90;;;;;;5039912;28;20060;-62
2022/12/29 06:09:20;;;;;;;18.20;3.08;;;9.20;99.90;;;;;;5039711;28;20029;-64
2022/12/29 06:11:46;;;;;;;14.55;2.75;;;9.20;99.90;;;;;;5047090;28;20060;-62
2022/12/29 06:14:12;;;;;;;12.85;2.75;;;9.20;99.90;;;;;;5039680;28;20037;-62
2022/12/29 06:16:41;;;;;;;15.32;2.55;;;9.20;99.90;;;;;;5023560;28;20041;-62
2022/12/29 06:19:10;;;;;;;23.35;2.90;;;9.10;99.90;;;;;;5035779;28;20084;-61
2022/12/29 06:21:37;;;;;;;17.35;2.75;;;9.10;99.90;;;;;;5039069;28;20496;-62
2022/12/29 06:24:03;;;;;;;18.65;3.42;;;9.10;99.90;;;;;;5022305;28;20041;-61
2022/12/29 06:26:29;;;;;;;17.25;2.97;;;9.10;99.90;;;;;;5042245;28;20836;-63
2022/12/29 06:28:55;;;;;;;17.52;3.17;;;9.10;99.90;;;;;;5042612;28;20144;-61
2022/12/29 06:31:21;;;;;;;23.85;3.20;;;9.00;99.90;;;;;;5018776;28;20037;-63
2022/12/29 06:33:49;;;;;;;20.55;3.55;;;9.00;99.90;;;;;;5037748;28;20131;-63
2022/12/29 06:36:15;;;;;;;22.77;4.60;;;9.00;99.90;;;;;;5042738;28;20086;-61
2022/12/29 06:38:41;;;;;;;16.05;3.75;;;9.00;99.90;;;;;;5042214;28;20029;-62
2022/12/29 06:41:07;;;;;;;26.95;4.70;;;9.00;99.90;;;;;;5039651;28;20157;-63
2022/12/29 06:43:33;;;;;;;15.18;3.22;;;9.00;99.90;;;;;;5041485;28;20440;-64
2022/12/29 06:45:59;;;;;;;18.15;3.53;;;9.00;99.90;;;;;;5041988;28;20086;-61
2022/12/29 06:48:27;;;;;;;25.00;4.90;;;9.00;99.90;;;;;;5032883;28;20033;-61
2022/12/29 06:50:55;;;;;;;23.85;4.60;;;8.90;99.90;;;;;;5037648;28;20402;-62
2022/12/29 06:53:21;;;;;;;17.67;3.97;;;9.00;99.90;;;;;;5021454;28;20091;-64
2022/12/29 06:55:47;;;;;;;19.50;3.63;;;9.00;99.90;;;;;;5040033;28;20041;-63
2022/12/29 06:58:13;;;;;;;22.88;4.38;;;8.90;99.90;;;;;;5037041;28;20048;-62
2022/12/29 07:00:39;;;;;;;24.67;3.90;;;8.90;99.90;;;;;;5035895;28;20063;-62
2022/12/29 07:03:05;;;;;;;18.23;3.42;;;8.90;99.90;;;;;;5009788;28;20493;-62
2022/12/29 07:05:32;;;;;;;18.00;3.50;;;8.90;99.90;;;;;;5021619;28;20283;-57
2022/12/29 07:07:58;;;;;;;21.95;3.80;;;9.00;99.90;;;;;;5039614;28;20128;-62
2022/12/29 07:10:24;;;;;;;17.38;3.30;;;8.90;99.90;;;;;;5022685;28;20178;-58
2022/12/29 07:12:52;;;;;;;18.98;3.40;;;8.90;99.90;;;;;;5026170;28;20109;-58
2022/12/29 07:15:18;;;;;;;20.75;4.68;;;8.90;99.90;;;;;;5020704;28;20198;-61
2022/12/29 07:17:44;;;;;;;18.65;3.10;;;8.90;99.90;;;;;;5022225;28;20500;-59
2022/12/29 07:20:10;;;;;;;21.83;3.42;;;8.90;99.90;;;;;;5037605;28;20052;-61
2022/12/29 07:22:35;;;;;;;23.02;4.47;;;8.90;99.90;;;;;;5020084;28;20072;-61
2022/12/29 07:25:03;;;;;;;20.63;3.38;;;9.00;99.90;;;;;;5021103;28;20139;-60
2022/12/29 07:27:28;;;;;;;20.77;4.32;;;9.00;99.90;;;;;;5034098;28;20052;-60
2022/12/29 07:29:54;;;;;;;20.77;3.90;;;9.10;99.90;;;;;;5003233;28;20029;-60
2022/12/29 07:32:20;;;;;;;18.67;4.13;;;9.10;99.90;;;;;;5029501;28;20041;-58
2022/12/29 07:34:47;;;;;;;21.13;3.70;;;9.10;99.90;;;;;;5009483;28;20052;-57
2022/12/29 07:37:16;;;;;;;26.38;4.72;;;9.20;99.90;;;;;;5037033;28;20500;-59
2022/12/29 07:39:41;;;;;;;26.17;4.32;;;9.20;99.90;;;;;;5013888;28;20087;-63
2022/12/29 07:42:10;;;;;;;16.20;3.90;;;9.20;99.90;;;;;;5027967;28;20063;-57
2022/12/29 07:44:36;;;;;;;18.60;3.67;;;9.20;99.90;;;;;;5046096;28;20045;-63
2022/12/29 07:47:02;;;;;;;17.70;3.40;;;9.20;99.90;;;;;;5011572;28;20120;-62
2022/12/29 07:49:28;;;;;;;20.88;3.10;;;9.20;99.90;;;;;;5044316;28;20086;-62
2022/12/29 07:51:54;;;;;;;13.48;2.97;;;9.20;99.90;;;;;;5039289;28;20037;-62
2022/12/29 07:54:20;;;;;;;15.50;3.47;;;9.20;99.90;;;;;;5040487;28;20053;-59
2022/12/29 07:56:46;;;;;;;15.38;2.75;;;9.20;99.90;;;;;;5043829;28;20488;-58
2022/12/29 07:59:14;;;;;;;21.40;2.85;;;9.20;99.90;;;;;;5024856;28;20385;-58
2022/12/29 08:01:40;;;;;;;18.23;3.00;;;9.20;99.90;;;;;;5040490;28;20068;-62
2022/12/29 08:04:06;;;;;;;13.93;3.00;;;9.20;99.90;;;;;;5039482;28;20040;-58
2022/12/29 08:06:31;;;;;;;19.25;3.45;;;9.20;99.90;;;;;;5046291;28;20064;-61
2022/12/29 08:09:01;;;;;;;20.30;3.63;;;9.20;99.90;;;;;;5040824;28;20052;-60
2022/12/29 08:11:27;;;;;;;20.60;3.78;;;9.20;99.90;;;;;;5040385;28;20037;-61
2022/12/29 08:13:53;;;;;;;13.30;3.45;;;9.20;99.90;;;;;;5043690;28;20040;-59
2022/12/29 08:16:19;;;;;;;16.60;3.85;;;9.20;99.90;;;;;;5044714;28;20094;-62
2022/12/29 08:18:47;;;;;;;21.38;3.35;;;9.10;99.90;;;;;;5041412;28;20077;-60
2022/12/29 08:21:13;;;;;;;19.20;3.47;;;9.10;99.90;;;;;;5006495;28;20485;-58
2022/12/29 08:23:38;;;;;;;29.00;4.05;;;9.10;99.90;;;;;;5041611;28;20041;-61
2022/12/29 08:26:05;;;;;;;23.23;4.05;;;9.10;99.90;;;;;;5035522;28;20107;-61
2022/12/29 08:28:32;;;;;;;18.10;4.90;;;9.10;99.90;;;;;;5023012;28;20706;-62
2022/12/29 08:31:00;;;;;;;26.67;3.92;;;9.10;99.90;;;;;;5017685;28;20121;-63
2022/12/29 08:33:26;;;;;;;28.58;4.78;;;9.10;99.90;;;;;;5034376;28;21020;-59
2022/12/29 08:35:54;;;;;;;20.52;3.55;;;9.10;99.90;;;;;;5043132;28;20064;-61
2022/12/29 08:38:20;;;;;;;20.55;4.05;;;9.10;99.90;;;;;;5038384;28;20032;-60
2022/12/29 08:40:50;;;;;;;23.33;3.95;;;9.10;99.90;;;;;;5026426;28;20063;-61
2022/12/29 08:43:16;;;;;;;21.60;3.70;;;9.10;99.90;;;;;;5004641;28;20041;-59
2022/12/29 08:45:42;;;;;;;21.92;4.82;;;9.10;99.90;;;;;;5035616;28;20109;-61
2022/12/29 08:48:08;;;;;;;18.95;4.25;;;9.10;99.90;;;;;;5032858;28;20048;-58
2022/12/29 08:50:33;;;;;;;29.50;3.70;;;9.20;99.90;;;;;;5015175;28;20132;-61
2022/12/29 08:52:59;;;;;;;25.55;4.93;;;9.20;99.90;;;;;;5043183;28;20541;-62
2022/12/29 08:55:25;;;;;;;30.92;5.35;;;9.20;99.90;;;;;;5037458;28;20044;-60
2022/12/29 08:57:53;;;;;;;16.27;3.75;;;9.20;99.90;;;;;;5034263;28;20102;-61
2022/12/29 09:00:20;;;;;;;26.92;4.15;;;9.20;99.90;;;;;;5022943;28;20064;-62
2022/12/29 09:02:46;;;;;;;26.95;4.28;;;9.30;99.90;;;;;;5018639;28;20044;-58
2022/12/29 09:05:12;;;;;;;21.23;4.57;;;9.20;99.90;;;;;;5022131;28;20067;-62
2022/12/29 09:07:38;;;;;;;31.00;5.03;;;9.30;99.90;;;;;;5019153;28;20365;-61
2022/12/29 09:10:04;;;;;;;26.33;4.72;;;9.30;99.90;;;;;;5040223;28;20037;-60
2022/12/29 09:12:32;;;;;;;29.02;4.82;;;9.30;99.90;;;;;;5002054;28;20041;-62
2022/12/29 09:14:58;;;;;;;22.15;4.18;;;9.30;99.90;;;;;;5025127;28;20065;-61
2022/12/29 09:17:43;;;;;;;22.10;4.50;;;9.30;99.90;;;;;;5038279;28;20549;-61
2022/12/29 09:20:09;;;;;;;24.98;6.35;;;9.20;99.90;;;;;;5039721;28;20175;-60
2022/12/29 09:22:36;;;;;;;25.23;4.22;;;9.20;99.90;;;;;;5024498;28;20033;-63
2022/12/29 09:25:01;;;;;;;20.55;3.85;;;9.20;99.90;;;;;;5040265;28;20041;-61
2022/12/29 09:27:27;;;;;;;24.80;4.50;;;9.10;99.90;;;;;;5030231;22;20052;-58
2022/12/29 09:29:53;;;;;;;24.02;4.65;;;9.10;99.90;;;;;;5020802;28;20033;-58
2022/12/29 09:32:22;;;;;;;21.30;3.38;;;9.10;99.90;;;;;;5019151;28;20045;-57
2022/12/29 09:34:47;;;;;;;17.95;3.80;;;9.10;99.90;;;;;;5019284;28;20041;-57
2022/12/29 09:37:13;;;;;;;21.30;3.60;;;9.00;99.90;;;;;;5011448;28;20471;-57
2022/12/29 09:39:39;;;;;;;24.52;4.05;;;9.10;99.90;;;;;;5003673;28;20062;-58
2022/12/29 09:42:18;;;;;;;21.77;3.60;;;9.10;99.90;;;;;;5030316;22;20106;-59
2022/12/29 09:44:46;;;;;;;21.23;3.70;;;9.10;99.90;;;;;;5019111;28;20071;-59
2022/12/29 09:47:16;;;;;;;12.73;3.50;;;9.10;99.90;;;;;;5040508;28;20037;-59
2022/12/29 09:49:49;;;;;;;20.33;3.45;;;9.10;99.90;;;;;;5035160;28;20041;-59
2022/12/29 09:52:31;;;;;;;19.52;3.13;;;9.10;99.90;;;;;;5036223;28;20044;-59
2022/12/29 09:55:08;;;;;;;14.52;3.13;;;9.10;99.90;;;;;;5040358;28;20052;-60
2022/12/29 09:57:46;;;;;;;18.77;3.05;;;9.00;99.90;;;;;;5042432;28;20052;-59
2022/12/29 10:00:18;;;;;;;16.38;3.50;;;9.00;99.90;;;;;;5045699;28;20045;-59
2022/12/29 10:02:54;;;;;;;18.35;5.70;;;9.00;99.90;;;;;;5020061;28;20044;-59
2022/12/29 10:05:38;;;;;;;17.17;3.80;;;8.90;99.90;;;;;;5056578;28;20448;-60
2022/12/29 10:08:28;;;;;;;12.02;3.40;;;8.90;99.90;;;;;;5037252;28;20054;-59
2022/12/29 10:11:04;;;;;;;20.55;4.05;;;8.90;99.90;;;;;;5042100;28;20052;-59
2022/12/29 10:14:19;;;;;;;19.63;3.45;;;8.90;99.90;;;;;;5061605;28;20075;-60
2022/12/29 10:17:09;;;;;;;15.20;3.72;;;8.90;99.90;;;;;;5044864;28;20171;-60
2022/12/29 10:19:56;;;;;;;21.95;3.55;;;8.70;99.90;;;;;;5040658;28;20102;-59
2022/12/29 10:22:41;;;;;;;13.43;3.33;;;8.80;99.90;;;;;;5021015;28;20053;-58
2022/12/29 10:25:18;;;;;;;14.25;3.20;;;8.80;99.90;;;;;;5045683;28;20040;-60
2022/12/29 10:27:48;;;;;;;11.32;3.22;;;8.80;99.90;;;;;;5046415;28;20037;-60
2022/12/29 10:30:15;;;;;;;20.65;3.55;;;8.80;99.90;;;;;;5028628;28;20064;-59
2022/12/29 10:32:47;;;;;;;21.38;3.45;;;8.90;99.90;;;;;;5052743;28;20496;-60
2022/12/29 10:35:21;;;;;;;18.05;4.18;;;8.90;99.90;;;;;;5026947;28;20033;-60
2022/12/29 10:38:12;;;;;;;26.98;4.43;;;8.90;99.90;;;;;;5058638;28;20048;-60
2022/12/29 10:40:46;;;;;;;25.40;4.40;;;9.00;99.90;;;;;;5044321;28;20040;-60
2022/12/29 10:43:18;;;;;;;;;;;9.00;99.90;;;;;;5044886;28;20100;-58
2022/12/29 10:45:44;;;;;;;27.95;4.97;;;9.00;99.90;;;;;;5043885;28;19917;-59
2022/12/29 10:48:31;;;;;;;28.58;4.82;;;9.00;99.90;;;;;;5042940;28;20079;-59
2022/12/29 10:50:59;;;;;;;32.50;5.25;;;9.10;99.90;;;;;;5043607;28;20076;-59
2022/12/29 10:53:38;;;;;;;29.88;5.28;;;9.20;99.90;;;;;;5044142;28;20079;-59
2022/12/29 10:56:13;;;;;;;32.33;5.93;;;9.20;99.90;;;;;;5044765;28;20123;-59
2022/12/29 10:58:40;;;;;;;23.67;5.60;;;9.20;99.90;;;;;;5039744;28;20037;-59
2022/12/29 11:01:11;;;;;;;26.80;5.00;;;9.30;99.90;;;;;;5032915;28;20368;-59
2022/12/29 11:03:50;;;;;;;23.65;4.68;;;9.30;99.90;;;;;;5034245;28;20033;-59
2022/12/29 11:06:25;;;;;;;22.08;4.35;;;9.40;99.90;;;;;;5035181;28;20067;-59
2022/12/29 11:09:13;;;;;;;22.42;4.82;;;9.40;99.90;;;;;;5037236;28;20076;-59
2022/12/29 11:11:38;;;;;;;29.60;6.75;;;9.40;99.90;;;;;;5035584;28;20135;-59
2022/12/29 11:14:13;;;;;;;24.95;4.10;;;9.50;99.90;;;;;;5040473;28;20495;-59
2022/12/29 11:16:41;;;;;;;22.55;5.50;;;9.50;99.90;;;;;;5042323;28;20033;-58
2022/12/29 11:19:21;;;;;;;21.08;4.60;;;9.50;99.90;;;;;;5039427;28;20041;-59
2022/12/29 11:21:47;;;;;;;24.88;5.32;;;9.60;99.90;;;;;;5024247;28;20053;-59
2022/12/29 11:24:23;;;;;;;27.70;5.75;;;9.60;99.90;;;;;;5039640;28;20102;-59
2022/12/29 11:26:57;;;;;;;24.48;4.55;;;9.60;99.90;;;;;;5038940;28;20041;-59
2022/12/29 11:29:36;;;;;;;;;;;9.70;99.90;;;;;;5043663;28;20044;-59
2022/12/29 11:32:18;;;;;;;26.20;6.38;;;9.70;99.90;;;;;;5034311;28;19920;-59
2022/12/29 11:34:44;;;;;;;19.20;3.70;;;9.70;99.90;;;;;;5019441;28;20044;-60
2022/12/29 11:37:19;;;;;;;22.02;4.93;;;9.60;99.90;;;;;;5034223;28;20032;-59
2022/12/29 11:39:50;;;;;;;23.85;4.05;;;9.60;99.90;;;;;;5046603;28;20102;-58
2022/12/29 11:42:22;;;;;;;26.10;9.20;;;9.70;99.90;;;;;;5034342;28;20049;-58
2022/12/29 11:44:49;;;;;;;24.27;10.02;;;9.70;99.90;;;;;;5039458;28;20044;-59
2022/12/29 11:47:43;;;;;;;20.83;3.55;;;9.60;99.90;;;;;;5027047;28;20034;-59
2022/12/29 11:50:29;;;;;;;20.73;3.75;;;9.70;99.90;;;;;;5037251;28;20045;-59
2022/12/29 11:53:15;;;;;;;19.50;4.03;;;9.70;99.90;;;;;;5045107;28;20091;-59
2022/12/29 11:55:55;;;;;;;23.88;4.60;;;9.70;99.90;;;;;;5042519;28;20037;-59
2022/12/29 11:58:29;;;;;;;17.85;3.33;;;9.70;99.90;;;;;;5038336;28;20045;-59
2022/12/29 12:00:57;;;;;;;19.23;3.25;;;9.70;99.90;;;;;;5024279;28;20045;-59
2022/12/29 12:03:26;;;;;;;18.67;4.25;;;9.80;99.90;;;;;;5039131;28;20045;-59
2022/12/29 12:06:00;;;;;;;18.65;3.70;;;9.80;99.90;;;;;;5042360;28;20434;-59
2022/12/29 12:08:53;;;;;;;17.33;2.72;;;9.90;99.90;;;;;;5046411;28;20530;-59
2022/12/29 12:11:22;;;;;;;13.23;2.90;;;10.00;99.90;;;;;;5043278;28;20111;-59
2022/12/29 12:14:20;;;;;;;17.02;2.38;;;10.00;99.90;;;;;;5023805;28;20043;-59
2022/12/29 12:17:16;;;;;;;21.42;3.55;;;10.00;99.90;;;;;;5039551;28;20056;-59
2022/12/29 12:20:01;;;;;;;11.88;2.10;;;10.00;99.90;;;;;;5038613;28;20746;-59
2022/12/29 12:22:36;;;;;;;14.60;2.40;;;10.00;99.90;;;;;;5040887;28;20087;-59
2022/12/29 12:25:20;;;;;;;16.83;3.22;;;10.00;99.90;;;;;;5038151;28;20073;-58
2022/12/29 12:27:59;;;;;;;13.43;2.42;;;10.00;99.90;;;;;;5024159;28;20115;-59
2022/12/29 12:33:03;;;;;;;;;;;9.80;99.90;;;;;;4985647;28;20043;-59
2022/12/29 12:35:31;;;;;;;16.42;2.38;;;9.70;99.90;;;;;;4960256;28;19961;-59
2022/12/29 12:38:26;;;;;;;12.07;2.25;;;9.80;99.90;;;;;;4977443;28;20673;-59
2022/12/29 12:41:00;;;;;;;13.80;2.40;;;9.80;99.90;;;;;;4969765;28;20077;-60
2022/12/29 12:44:07;;;;;;;12.00;3.25;;;9.80;99.90;;;;;;4968785;28;20050;-59
2022/12/29 12:46:49;;;;;;;11.23;2.10;;;9.90;99.90;;;;;;4890867;29;20491;-59
2022/12/29 12:49:45;;;;;;;17.08;2.75;;;9.80;99.90;;;;;;4900317;29;20036;-60
2022/12/29 12:52:58;;;;;;;12.55;3.08;;;9.80;99.90;;;;;;4946414;28;20050;-59
2022/12/29 12:55:36;;;;;;;18.25;4.88;;;9.70;99.90;;;;;;4964503;28;20062;-59
2022/12/29 12:58:30;;;;;;;14.35;3.28;;;9.70;99.90;;;;;;4968537;28;20498;-59
2022/12/29 13:01:24;;;;;;;13.82;4.38;;;9.60;99.90;;;;;;4948186;28;20154;-59
2022/12/29 13:04:28;;;;;;;13.02;4.80;;;9.60;99.90;;;;;;4966602;28;20073;-59
2022/12/29 13:07:08;;;;;;;14.10;2.90;;;9.60;99.90;;;;;;4953954;28;20046;-59
2022/12/29 13:10:06;;;;;;;16.73;4.47;;;9.60;99.90;;;;;;4968755;28;20172;-59
2022/12/29 13:12:48;;;;;;;11.98;2.95;;;9.60;99.90;;;;;;4948837;28;20085;-59
2022/12/29 13:15:23;;;;;;;11.68;2.22;;;9.60;99.90;;;;;;4971365;28;20054;-59
2022/12/29 13:18:07;;;;;;;11.48;2.72;;;9.60;99.90;;;;;;4967628;28;20042;-58
2022/12/29 13:20:39;;;;;;;;;;;9.50;99.90;;;;;;4967788;28;20042;-58
2022/12/29 13:23:16;;;;;;;9.77;2.50;;;9.60;99.90;;;;;;4968891;28;19984;-59
2022/12/29 13:26:13;;;;;;;12.18;2.38;;;9.50;99.90;;;;;;4969936;28;20034;-59
2022/12/29 13:28:52;;;;;;;9.00;2.15;;;9.50;99.90;;;;;;4966290;28;20062;-58
2022/12/29 13:31:27;;;;;;;13.25;2.50;;;9.50;99.90;;;;;;4963650;28;20054;-59
2022/12/29 13:34:01;;;;;;;14.10;2.92;;;9.40;99.90;;;;;;4987512;28;20399;-60
2022/12/29 13:36:33;;;;;;;16.48;3.95;;;9.50;99.90;;;;;;4984902;28;20038;-59
2022/12/29 13:39:35;;;;;;;12.10;3.60;;;9.50;99.90;;;;;;4967051;28;20404;-59
2022/12/29 13:42:04;;;;;;;17.50;4.60;;;9.50;99.90;;;;;;4950422;28;20715;-59
2022/12/29 13:44:48;;;;;;;9.10;1.90;;;9.50;99.90;;;;;;4966714;28;20038;-59
2022/12/29 13:47:37;;;;;;;13.32;2.35;;;9.50;99.90;;;;;;4968835;28;20042;-59
2022/12/29 13:50:11;;;;;;;13.38;2.38;;;9.50;99.90;;;;;;4966872;28;20046;-58